createdAt,value
2023-05-16T00:07:31.933Z,0.00
2023-05-16T00:22:32.190Z,0.00
2023-05-16T00:37:32.376Z,0.00
2023-05-16T00:52:32.551Z,0.00
2023-05-16T01:07:32.604Z,0.00
2023-05-16T01:22:32.876Z,0.00
2023-05-16T01:37:33.042Z,0.00
2023-05-16T01:52:33.285Z,0.00
2023-05-16T02:07:33.479Z,0.00
2023-05-16T02:22:33.432Z,0.00
2023-05-16T02:37:33.740Z,0.00
2023-05-16T02:52:34.098Z,12.00
2023-05-16T03:07:34.189Z,40.00
2023-05-16T03:22:35.412Z,96.00
2023-05-16T03:37:35.694Z,204.00
2023-05-16T03:52:35.840Z,388.00
2023-05-16T04:07:36.073Z,572.00
2023-05-16T04:22:36.246Z,716.00
2023-05-16T04:37:37.879Z,1140.00
2023-05-16T04:52:47.524Z,1200.00
2023-05-16T05:07:47.751Z,1596.00
2023-05-16T05:22:48.606Z,1648.00
2023-05-16T05:37:48.736Z,3120.00
2023-05-16T05:52:49.352Z,2748.00
2023-05-16T06:07:49.548Z,2784.00
2023-05-16T06:22:49.683Z,3792.00
2023-05-16T06:37:49.929Z,4404.00
2023-05-16T06:52:50.117Z,4548.00
2023-05-16T07:07:50.282Z,6524.00
2023-05-16T07:22:50.501Z,5292.00
2023-05-16T07:37:50.684Z,3768.00
2023-05-16T07:52:50.940Z,5300.00
2023-05-16T08:07:51.104Z,5808.00
2023-05-16T08:22:51.454Z,6416.00
2023-05-16T08:37:51.941Z,5720.00
2023-05-16T08:52:52.368Z,4936.00
2023-05-16T09:08:23.155Z,6380.00
2023-05-16T09:23:23.880Z,5688.00
2023-05-16T09:38:35.485Z,6216.00
2023-05-16T09:53:36.171Z,5268.00
2023-05-16T10:08:38.869Z,5488.00
2023-05-16T10:23:39.959Z,6484.00
2023-05-16T10:38:41.350Z,10336.00
2023-05-16T10:53:41.370Z,16896.00
2023-05-16T11:08:41.618Z,8372.00
2023-05-16T11:23:41.648Z,13224.00
2023-05-16T11:38:42.699Z,16192.00
2023-05-16T11:53:44.241Z,12344.00
2023-05-16T12:08:45.834Z,20768.00
2023-05-16T12:23:46.527Z,18944.00
2023-05-16T12:38:47.999Z,32736.00
2023-05-16T12:54:09.801Z,10580.00
2023-05-16T13:09:05.022Z,14320.00
2023-05-16T13:24:06.185Z,62688.00
2023-05-16T13:39:06.406Z,72704.00
2023-05-16T13:54:06.416Z,18080.00
2023-05-16T14:09:06.883Z,12748.00
2023-05-16T14:24:07.540Z,21504.00
2023-05-16T14:39:08.153Z,62656.00
2023-05-16T14:54:09.087Z,57408.00
2023-05-16T15:09:09.587Z,54688.00
2023-05-16T15:24:09.696Z,57120.00
2023-05-16T15:39:10.050Z,44992.00
2023-05-16T15:54:09.770Z,45824.00
2023-05-16T16:09:10.438Z,35328.00
2023-05-16T16:24:10.473Z,23232.00
2023-05-16T16:39:10.597Z,7092.00
2023-05-16T16:54:10.701Z,5988.00
2023-05-16T17:09:10.829Z,5472.00
2023-05-16T17:24:11.593Z,4396.00
2023-05-16T17:39:11.776Z,3716.00
2023-05-16T17:54:12.288Z,3000.00
2023-05-16T18:09:12.498Z,2212.00
2023-05-16T18:24:14.183Z,1332.00
2023-05-16T18:39:14.840Z,652.00
2023-05-16T18:54:14.772Z,260.00
2023-05-16T19:09:15.004Z,64.00
2023-05-16T19:24:14.900Z,12.00
2023-05-16T19:39:15.350Z,0.00
2023-05-16T19:54:15.697Z,0.00
2023-05-16T20:09:16.266Z,0.00
2023-05-16T20:24:17.237Z,0.00
2023-05-16T20:39:17.466Z,0.00
2023-05-16T20:54:17.808Z,0.00
2023-05-16T21:09:25.133Z,0.00
2023-05-16T21:24:26.020Z,0.00
2023-05-16T21:39:26.672Z,0.00
2023-05-16T21:54:27.152Z,0.00
2023-05-16T22:09:27.557Z,0.00
2023-05-16T22:24:27.648Z,0.00
2023-05-16T22:39:28.697Z,0.00
2023-05-16T22:54:29.685Z,0.00
2023-05-16T23:09:29.910Z,0.00
2023-05-16T23:24:30.111Z,0.00
2023-05-16T23:39:30.569Z,0.00
2023-05-16T23:54:30.963Z,0.00
